createdAt,value
2022-10-14T00:00:50.401Z,71.20
2022-10-14T00:03:19.768Z,71.02
2022-10-14T00:05:48.680Z,70.81
2022-10-14T00:08:16.760Z,70.70
2022-10-14T00:10:45.263Z,70.63
2022-10-14T00:13:13.235Z,70.69
2022-10-14T00:15:41.789Z,70.78
2022-10-14T00:18:09.842Z,70.79
2022-10-14T00:20:39.347Z,70.74
2022-10-14T00:23:07.437Z,70.54
2022-10-14T00:25:39.175Z,70.88
2022-10-14T00:28:07.191Z,71.01
2022-10-14T00:30:35.132Z,71.23
2022-10-14T00:33:03.201Z,70.94
2022-10-14T00:35:32.420Z,70.97
2022-10-14T00:38:01.966Z,70.90
2022-10-14T00:40:29.952Z,71.44
2022-10-14T00:42:58.058Z,71.13
2022-10-14T00:45:26.335Z,71.70
2022-10-14T00:47:54.661Z,71.96
2022-10-14T00:50:23.183Z,71.74
2022-10-14T00:52:51.266Z,71.60
2022-10-14T00:55:21.136Z,71.04
2022-10-14T00:57:49.156Z,70.94
2022-10-14T01:00:19.403Z,70.81
2022-10-14T01:02:48.178Z,70.80
2022-10-14T01:05:18.146Z,70.56
2022-10-14T01:07:53.488Z,70.78
2022-10-14T01:10:26.894Z,70.86
2022-10-14T01:13:04.098Z,71.32
2022-10-14T01:15:36.940Z,71.17
2022-10-14T01:18:16.782Z,71.01
2022-10-14T01:21:08.331Z,71.35
2022-10-14T01:23:51.271Z,71.07
2022-10-14T01:26:26.906Z,70.89
2022-10-14T01:29:06.652Z,71.21
2022-10-14T01:31:37.020Z,71.12
2022-10-14T01:34:08.389Z,70.78
2022-10-14T01:36:38.201Z,70.90
2022-10-14T01:39:10.113Z,70.99
2022-10-14T01:41:41.010Z,70.73
2022-10-14T01:44:11.040Z,70.68
2022-10-14T01:46:41.988Z,70.68
2022-10-14T01:49:11.565Z,70.79
2022-10-14T01:51:41.098Z,70.97
2022-10-14T01:54:12.243Z,70.67
2022-10-14T01:56:40.958Z,71.18
2022-10-14T01:59:11.228Z,71.23
2022-10-14T02:01:40.852Z,71.03
2022-10-14T02:04:15.300Z,70.96
2022-10-14T02:06:44.616Z,71.07
2022-10-14T02:09:16.305Z,71.24
2022-10-14T02:11:49.762Z,70.93
2022-10-14T02:14:23.983Z,71.08
2022-10-14T02:16:59.016Z,71.26
2022-10-14T02:19:30.082Z,71.62
2022-10-14T02:22:24.429Z,72.01
2022-10-14T02:25:09.145Z,72.23
2022-10-14T02:27:38.044Z,72.08
2022-10-14T02:30:07.779Z,72.25
2022-10-14T02:32:38.155Z,72.12
2022-10-14T02:35:07.376Z,72.43
2022-10-14T02:37:35.940Z,72.13
2022-10-14T02:40:06.497Z,72.33
2022-10-14T02:42:34.733Z,72.09
2022-10-14T02:45:03.668Z,72.15
2022-10-14T02:47:31.776Z,72.10
2022-10-14T02:50:01.144Z,73.05
2022-10-14T02:52:29.225Z,74.15
2022-10-14T02:54:57.173Z,73.77
2022-10-14T02:57:25.241Z,74.09
2022-10-14T02:59:53.199Z,74.74
2022-10-14T03:02:21.442Z,75.78
2022-10-14T03:04:49.616Z,76.23
2022-10-14T03:07:19.198Z,77.07
2022-10-14T03:09:47.340Z,76.94
2022-10-14T03:12:15.292Z,75.84
2022-10-14T03:14:43.496Z,76.40
2022-10-14T03:17:12.186Z,75.96
2022-10-14T03:19:40.066Z,76.28
2022-10-14T03:22:08.131Z,76.24
2022-10-14T03:24:37.602Z,75.94
2022-10-14T03:27:05.613Z,75.36
2022-10-14T03:29:33.724Z,75.89
2022-10-14T03:32:01.805Z,76.87
2022-10-14T03:34:29.973Z,75.92
2022-10-14T03:36:57.928Z,75.91
2022-10-14T03:39:26.043Z,76.27
2022-10-14T03:41:55.534Z,76.42
2022-10-14T03:44:23.802Z,76.37
2022-10-14T03:46:51.783Z,75.37
2022-10-14T03:49:19.831Z,75.09
2022-10-14T03:51:48.029Z,74.63
2022-10-14T03:54:16.170Z,74.79
2022-10-14T03:56:44.148Z,74.30
2022-10-14T03:59:13.672Z,74.27
2022-10-14T04:01:41.692Z,74.01
2022-10-14T04:04:09.745Z,74.13
2022-10-14T04:06:37.937Z,73.74
2022-10-14T04:09:06.149Z,73.83
2022-10-14T04:11:34.190Z,73.66
2022-10-14T04:14:02.308Z,73.75
2022-10-14T04:16:31.730Z,73.95
2022-10-14T04:19:00.049Z,73.85
2022-10-14T04:21:28.044Z,73.77
2022-10-14T04:23:56.000Z,74.08
2022-10-14T04:26:24.101Z,74.55
2022-10-14T04:28:52.337Z,74.81
2022-10-14T04:31:20.417Z,75.61
2022-10-14T04:33:50.044Z,76.03
2022-10-14T04:36:18.154Z,76.33
2022-10-14T04:38:46.326Z,76.16
2022-10-14T04:41:14.470Z,75.71
2022-10-14T04:43:42.459Z,75.94
2022-10-14T04:46:10.736Z,76.10
2022-10-14T04:48:38.934Z,76.22
2022-10-14T04:51:08.496Z,76.05
2022-10-14T04:53:36.451Z,75.73
2022-10-14T04:56:04.461Z,75.72
2022-10-14T04:58:32.524Z,75.29
2022-10-14T05:01:00.543Z,75.10
2022-10-14T05:03:28.500Z,74.77
2022-10-14T05:05:56.485Z,74.54
2022-10-14T05:08:25.913Z,74.38
2022-10-14T05:10:53.846Z,74.25
2022-10-14T05:13:21.840Z,74.02
2022-10-14T05:15:49.864Z,74.21
2022-10-14T05:18:17.855Z,74.27
2022-10-14T05:20:49.157Z,74.46
2022-10-14T05:23:17.166Z,74.16
2022-10-14T05:25:46.533Z,74.00
2022-10-14T05:28:14.680Z,73.90
2022-10-14T05:30:43.470Z,73.55
2022-10-14T05:33:11.555Z,73.14
2022-10-14T05:35:58.023Z,73.13
2022-10-14T05:38:27.049Z,72.97
2022-10-14T05:40:57.324Z,73.04
2022-10-14T05:43:29.499Z,72.98
2022-10-14T05:46:00.017Z,72.68
2022-10-14T05:48:28.198Z,72.63
2022-10-14T05:51:01.669Z,72.20
2022-10-14T05:53:30.607Z,72.05
2022-10-14T05:56:04.007Z,72.17
2022-10-14T05:58:32.630Z,71.77
2022-10-14T06:01:01.377Z,71.77
2022-10-14T06:03:29.898Z,71.17
2022-10-14T06:05:58.089Z,71.06
2022-10-14T06:08:26.839Z,70.97
2022-10-14T06:10:55.252Z,71.09
2022-10-14T06:13:27.901Z,70.29
2022-10-14T06:18:36.070Z,70.06
2022-10-14T06:21:06.937Z,69.89
2022-10-14T06:23:35.920Z,69.40
2022-10-14T06:26:06.321Z,69.00
2022-10-14T06:28:36.667Z,68.36
2022-10-14T06:31:05.469Z,68.48
2022-10-14T06:33:33.686Z,68.53
2022-10-14T06:36:03.378Z,67.85
2022-10-14T06:38:31.680Z,67.97
2022-10-14T06:41:00.109Z,67.81
2022-10-14T06:43:28.534Z,67.47
2022-10-14T06:45:59.852Z,66.77
2022-10-14T06:48:27.912Z,65.62
2022-10-14T06:50:56.042Z,65.99
2022-10-14T06:53:24.227Z,64.58
2022-10-14T06:55:59.031Z,64.42
2022-10-14T06:58:27.453Z,64.39
2022-10-14T07:03:31.425Z,64.01
2022-10-14T07:05:59.684Z,64.09
2022-10-14T07:08:28.267Z,63.18
2022-10-14T07:10:56.852Z,62.20
2022-10-14T07:13:25.222Z,61.33
2022-10-14T07:15:53.842Z,61.45
2022-10-14T07:18:22.262Z,61.14
2022-10-14T07:20:51.743Z,60.67
2022-10-14T07:23:20.268Z,60.27
2022-10-14T07:25:58.102Z,60.35
2022-10-14T07:28:27.196Z,57.72
2022-10-14T07:30:59.542Z,57.52
2022-10-14T07:33:29.868Z,57.38
2022-10-14T07:36:01.851Z,57.54
2022-10-14T07:38:30.261Z,57.10
2022-10-14T07:40:59.732Z,57.24
2022-10-14T07:43:28.105Z,57.70
2022-10-14T07:46:01.027Z,56.99
2022-10-14T07:48:32.597Z,57.37
2022-10-14T07:51:09.064Z,55.99
2022-10-14T07:53:38.098Z,56.23
2022-10-14T07:56:06.249Z,56.21
2022-10-14T07:58:34.203Z,55.23
2022-10-14T08:01:02.201Z,54.83
2022-10-14T08:03:30.349Z,54.65
2022-10-14T08:06:02.378Z,54.43
2022-10-14T08:08:31.923Z,54.50
2022-10-14T08:11:03.562Z,54.62
2022-10-14T08:13:32.331Z,53.53
2022-10-14T08:16:01.642Z,53.58
2022-10-14T08:18:39.521Z,54.50
2022-10-14T08:23:57.225Z,55.10
2022-10-14T08:26:31.506Z,55.37
2022-10-14T08:29:02.964Z,54.95
2022-10-14T08:31:37.493Z,55.87
2022-10-14T08:34:11.328Z,55.76
2022-10-14T08:36:41.437Z,55.05
2022-10-14T08:39:12.625Z,54.68
2022-10-14T08:41:58.657Z,55.12
2022-10-14T08:44:39.025Z,55.05
2022-10-14T08:50:07.708Z,55.93
2022-10-14T10:06:00.597Z,53.54
2022-10-14T10:16:54.343Z,51.00
2022-10-14T11:08:12.512Z,42.80
2022-10-14T11:55:29.574Z,39.14
2022-10-14T11:58:04.071Z,38.86
2022-10-14T12:00:36.151Z,37.53
2022-10-14T12:03:11.650Z,38.38
2022-10-14T12:05:44.400Z,37.36
2022-10-14T12:08:28.500Z,37.22
2022-10-14T12:11:11.587Z,38.05
2022-10-14T12:13:43.811Z,38.31
2022-10-14T12:16:19.017Z,37.69
2022-10-14T12:18:50.127Z,37.13
2022-10-14T12:21:22.162Z,36.37
2022-10-14T12:23:53.397Z,35.63
2022-10-14T12:26:37.898Z,35.30
2022-10-14T12:29:19.273Z,36.18
2022-10-14T12:31:51.330Z,35.40
2022-10-14T12:34:32.211Z,37.22
2022-10-14T12:37:29.132Z,39.76
2022-10-14T12:40:15.256Z,41.31
2022-10-14T12:42:57.977Z,44.06
2022-10-14T12:45:35.860Z,44.28
2022-10-14T12:48:12.382Z,48.38
2022-10-14T12:50:43.509Z,49.01
2022-10-14T12:53:21.274Z,48.46
2022-10-14T12:55:51.461Z,48.95
2022-10-14T12:58:25.443Z,49.60
2022-10-14T13:01:00.055Z,49.87
2022-10-14T13:03:29.688Z,50.21
2022-10-14T13:06:13.188Z,48.84
2022-10-14T13:08:41.594Z,51.05
2022-10-14T13:11:11.706Z,51.10
2022-10-14T13:14:01.595Z,52.13
2022-10-14T13:16:54.569Z,52.95
2022-10-14T13:19:44.450Z,53.15
2022-10-14T13:22:34.633Z,52.86
2022-10-14T13:25:08.412Z,53.61
2022-10-14T13:27:43.394Z,52.71
2022-10-14T13:30:18.265Z,52.70
2022-10-14T13:32:50.077Z,53.21
2022-10-14T13:35:23.112Z,52.73
2022-10-14T13:37:58.176Z,53.62
2022-10-14T13:40:30.267Z,53.90
2022-10-14T13:42:59.618Z,52.49
2022-10-14T13:45:35.985Z,52.74
2022-10-14T13:48:08.018Z,53.84
2022-10-14T13:50:38.184Z,55.28
2022-10-14T13:53:10.454Z,54.37
2022-10-14T13:55:44.935Z,53.89
2022-10-14T13:58:14.356Z,54.73
2022-10-14T14:00:47.260Z,56.55
2022-10-14T14:03:21.954Z,56.23
2022-10-14T14:05:50.702Z,55.66
2022-10-14T14:11:19.098Z,56.93
2022-10-14T14:13:57.336Z,56.91
2022-10-14T14:16:34.360Z,56.82
2022-10-14T14:19:08.687Z,57.28
2022-10-14T14:21:41.954Z,57.20
2022-10-14T14:27:15.316Z,56.63
2022-10-14T14:29:47.485Z,56.77
2022-10-14T14:32:19.512Z,57.69
2022-10-14T14:34:49.634Z,59.30
2022-10-14T14:40:17.163Z,59.69
2022-10-14T14:42:48.054Z,60.01
2022-10-14T14:45:18.378Z,59.78
2022-10-14T14:47:48.992Z,60.40
2022-10-14T14:50:29.956Z,59.73
2022-10-14T14:53:09.032Z,60.12
2022-10-14T14:55:39.270Z,60.06
2022-10-14T14:58:14.639Z,59.85
2022-10-14T15:00:45.640Z,59.55
2022-10-14T15:03:15.381Z,59.21
2022-10-14T15:05:50.072Z,59.62
2022-10-14T15:08:21.961Z,58.86
2022-10-14T15:10:50.716Z,58.71
2022-10-14T15:16:51.971Z,58.21
2022-10-14T15:22:39.730Z,58.38
2022-10-14T15:34:41.350Z,59.31
2022-10-14T15:37:12.973Z,59.88
2022-10-14T15:39:41.595Z,59.48
2022-10-14T15:42:14.000Z,59.66
2022-10-14T15:44:42.167Z,59.59
2022-10-14T15:47:23.980Z,59.95
2022-10-14T15:49:52.396Z,59.55
2022-10-14T15:52:24.384Z,59.43
2022-10-14T15:54:56.567Z,59.82
2022-10-14T15:57:26.929Z,60.01
2022-10-14T15:59:55.588Z,59.91
2022-10-14T16:02:29.872Z,60.27
2022-10-14T16:07:50.478Z,60.05
2022-10-14T16:10:29.202Z,59.96
2022-10-14T16:13:02.433Z,60.10
2022-10-14T16:15:36.052Z,60.23
2022-10-14T16:18:05.979Z,60.46
2022-10-14T16:20:41.786Z,60.03
2022-10-14T16:23:23.144Z,60.56
2022-10-14T16:25:53.689Z,59.94
2022-10-14T16:28:24.210Z,60.38
2022-10-14T16:30:58.186Z,60.22
2022-10-14T16:33:29.062Z,60.36
2022-10-14T16:36:01.976Z,60.39
2022-10-14T16:56:54.857Z,61.28
2022-10-14T16:59:24.063Z,61.29
2022-10-14T17:01:52.400Z,61.21
2022-10-14T17:04:20.965Z,60.90
2022-10-14T17:06:49.842Z,60.85
2022-10-14T17:09:18.592Z,61.44
2022-10-14T17:11:49.939Z,61.57
2022-10-14T17:14:22.012Z,61.50
2022-10-14T17:16:52.698Z,61.50
2022-10-14T17:24:59.460Z,61.64
2022-10-14T17:27:30.426Z,61.79
2022-10-14T17:29:59.438Z,62.56
2022-10-14T17:32:28.217Z,62.30
2022-10-14T17:34:56.629Z,61.93
2022-10-14T17:37:24.829Z,62.28
2022-10-14T17:39:52.878Z,61.99
2022-10-14T17:42:21.690Z,61.81
2022-10-14T17:44:52.359Z,62.64
2022-10-14T17:47:20.875Z,62.51
2022-10-14T17:49:50.788Z,62.02
2022-10-14T17:52:19.394Z,62.39
2022-10-14T17:54:47.606Z,62.35
2022-10-14T17:57:16.276Z,62.34
2022-10-14T17:59:44.404Z,62.47
2022-10-14T18:02:18.452Z,63.28
2022-10-14T18:04:52.625Z,63.23
2022-10-14T18:07:24.432Z,63.92
2022-10-14T18:10:07.395Z,63.63
2022-10-14T18:12:42.957Z,64.16
2022-10-14T18:15:15.673Z,64.17
2022-10-14T18:23:34.567Z,63.72
2022-10-14T18:38:19.181Z,63.43
2022-10-14T18:43:57.868Z,64.17
2022-10-14T18:46:41.786Z,63.96
2022-10-14T18:55:16.217Z,64.60
2022-10-14T18:57:44.258Z,64.26
2022-10-14T19:00:14.469Z,64.31
2022-10-14T19:02:49.193Z,65.50
2022-10-14T19:05:18.159Z,65.21
2022-10-14T19:07:49.331Z,64.83
2022-10-14T19:10:27.592Z,64.51
2022-10-14T19:13:02.292Z,64.61
2022-10-14T19:15:44.653Z,65.43
2022-10-14T19:18:14.266Z,65.20
2022-10-14T19:20:43.064Z,65.04
2022-10-14T19:23:11.425Z,65.12
2022-10-14T19:25:41.166Z,65.42
2022-10-14T19:28:09.791Z,65.72
2022-10-14T19:30:37.805Z,65.25
2022-10-14T19:33:06.768Z,66.59
2022-10-14T19:35:34.719Z,66.15
2022-10-14T19:38:02.784Z,66.90
2022-10-14T19:40:30.842Z,67.32
2022-10-14T19:43:00.593Z,67.06
2022-10-14T19:45:28.708Z,67.17
2022-10-14T19:47:57.450Z,66.83
2022-10-14T19:50:25.602Z,67.31
2022-10-14T19:52:53.638Z,67.72
2022-10-14T19:55:26.693Z,67.29
2022-10-14T19:57:57.837Z,66.99
2022-10-14T20:00:29.978Z,67.59
2022-10-14T20:03:02.094Z,68.54
2022-10-14T20:05:31.994Z,68.16
2022-10-14T20:08:02.194Z,68.05
2022-10-14T20:10:31.184Z,67.84
2022-10-14T20:13:00.183Z,68.23
2022-10-14T20:15:30.986Z,68.11
2022-10-14T20:17:59.684Z,67.94
2022-10-14T20:20:28.831Z,68.81
2022-10-14T20:23:04.984Z,69.03
2022-10-14T20:25:37.254Z,69.28
2022-10-14T20:28:11.360Z,69.45
2022-10-14T20:30:52.780Z,69.19
2022-10-14T20:33:21.897Z,68.76
2022-10-14T20:35:50.991Z,68.93
2022-10-14T20:38:21.288Z,69.02
2022-10-14T20:40:52.065Z,69.17
2022-10-14T20:43:23.592Z,68.78
2022-10-14T20:45:56.466Z,69.70
2022-10-14T20:48:25.502Z,69.40
2022-10-14T20:50:57.430Z,69.34
2022-10-14T20:53:30.767Z,69.76
2022-10-14T20:56:11.508Z,69.38
2022-10-14T20:58:48.207Z,69.47
2022-10-14T21:01:23.450Z,69.14
2022-10-14T21:03:58.315Z,68.97
2022-10-14T21:06:44.535Z,69.40
2022-10-14T21:09:20.242Z,69.43
2022-10-14T21:14:40.057Z,69.59
2022-10-14T21:17:18.292Z,69.72
2022-10-14T21:19:48.574Z,69.83
2022-10-14T21:22:19.163Z,69.95
2022-10-14T21:24:48.568Z,70.27
2022-10-14T21:27:18.893Z,69.85
2022-10-14T21:29:50.491Z,69.71
2022-10-14T21:32:24.987Z,69.56
2022-10-14T21:34:54.216Z,69.68
2022-10-14T21:37:29.542Z,69.62
2022-10-14T21:40:00.934Z,69.80
2022-10-14T21:42:37.011Z,69.53
2022-10-14T21:45:06.367Z,69.79
2022-10-14T21:47:44.505Z,69.52
2022-10-14T21:50:23.158Z,69.41
2022-10-14T21:53:05.416Z,69.22
2022-10-14T21:55:50.668Z,69.27
2022-10-14T21:58:24.605Z,69.34
2022-10-14T22:00:54.875Z,68.92
2022-10-14T22:03:28.377Z,69.17
2022-10-14T22:06:02.256Z,68.75
2022-10-14T22:08:36.158Z,68.61
2022-10-14T22:11:06.803Z,68.54
2022-10-14T22:13:37.412Z,68.36
2022-10-14T22:16:09.920Z,68.20
2022-10-14T22:18:46.503Z,68.13
2022-10-14T22:21:17.345Z,68.12
2022-10-14T22:23:47.252Z,68.10
2022-10-14T22:26:21.347Z,67.84
2022-10-14T22:29:00.308Z,67.74
2022-10-14T22:31:37.948Z,67.74
2022-10-14T22:34:20.346Z,67.63
2022-10-14T22:36:51.179Z,67.79
2022-10-14T22:39:20.255Z,67.66
2022-10-14T22:44:38.023Z,67.54
2022-10-14T22:47:10.711Z,67.29
2022-10-14T22:49:42.788Z,67.33
2022-10-14T22:52:25.845Z,66.98
2022-10-14T22:55:10.154Z,67.06
2022-10-14T22:57:44.564Z,66.75
2022-10-14T23:03:05.803Z,66.76
2022-10-14T23:05:42.106Z,66.76
2022-10-14T23:08:23.047Z,66.68
2022-10-14T23:11:00.687Z,66.53
2022-10-14T23:16:20.063Z,66.56
2022-10-14T23:18:56.796Z,66.50
2022-10-14T23:24:32.085Z,66.50
2022-10-14T23:27:09.883Z,66.63
2022-10-14T23:32:22.205Z,66.48
2022-10-14T23:34:51.161Z,66.54
2022-10-14T23:37:22.720Z,66.29
2022-10-14T23:39:51.333Z,66.13
2022-10-14T23:42:20.020Z,66.55
2022-10-14T23:44:49.214Z,66.44
2022-10-14T23:50:19.482Z,66.10
2022-10-14T23:55:43.450Z,65.99
2022-10-14T23:58:17.610Z,65.88
